createdAt,value
2022-10-19T00:02:00.536Z,53.50
2022-10-19T00:04:11.075Z,57.00
2022-10-19T00:06:26.191Z,72.70
2022-10-19T00:08:36.796Z,56.10
2022-10-19T00:10:47.048Z,33.20
2022-10-19T00:12:57.027Z,49.00
2022-10-19T00:15:07.958Z,74.40
2022-10-19T00:17:18.123Z,44.10
2022-10-19T00:19:29.978Z,56.10
2022-10-19T00:21:40.463Z,47.00
2022-10-19T00:23:50.868Z,70.60
2022-10-19T00:26:03.360Z,68.30
2022-10-19T00:30:21.314Z,85.10
2022-10-19T00:32:31.996Z,89.10
2022-10-19T00:34:42.318Z,90.80
2022-10-19T00:36:52.302Z,74.90
2022-10-19T00:39:03.107Z,52.70
2022-10-19T00:41:13.259Z,56.30
2022-10-19T00:43:25.478Z,47.20
2022-10-19T00:45:35.673Z,33.50
2022-10-19T00:47:47.113Z,22.40
2022-10-19T00:49:59.215Z,22.90
2022-10-19T00:52:12.607Z,25.60
2022-10-19T00:54:26.024Z,20.90
2022-10-19T00:56:36.914Z,19.80
2022-10-19T00:58:47.848Z,17.30
2022-10-19T01:00:57.904Z,17.30
2022-10-19T01:03:09.027Z,18.40
2022-10-19T01:05:19.634Z,17.20
2022-10-19T01:07:30.561Z,21.40
2022-10-19T01:09:40.756Z,18.00
2022-10-19T01:11:58.508Z,21.90
2022-10-19T01:14:24.839Z,17.60
2022-10-19T01:16:44.900Z,20.90
2022-10-19T01:19:03.248Z,18.10
2022-10-19T01:21:27.122Z,21.60
2022-10-19T01:24:10.314Z,20.80
2022-10-19T01:26:37.546Z,13.50
2022-10-19T01:28:59.194Z,17.70
2022-10-19T01:31:18.664Z,17.20
2022-10-19T01:33:42.049Z,18.20
2022-10-19T01:36:03.544Z,16.90
2022-10-19T01:38:25.983Z,15.80
2022-10-19T01:42:51.499Z,20.00
2022-10-19T01:45:13.241Z,21.80
2022-10-19T01:47:28.280Z,15.10
2022-10-19T01:49:43.567Z,16.20
2022-10-19T01:54:15.911Z,16.60
2022-10-19T01:56:29.504Z,17.40
2022-10-19T01:58:41.835Z,21.30
2022-10-19T02:03:03.254Z,20.10
2022-10-19T02:05:15.402Z,19.50
2022-10-19T02:07:27.076Z,21.90
2022-10-19T02:09:37.276Z,21.10
2022-10-19T02:11:49.717Z,25.10
2022-10-19T02:14:06.965Z,24.10
2022-10-19T02:16:22.563Z,23.50
2022-10-19T02:18:35.787Z,21.90
2022-10-19T02:20:45.867Z,16.00
2022-10-19T02:22:56.009Z,20.20
2022-10-19T02:25:06.796Z,24.40
2022-10-19T02:27:17.067Z,21.50
2022-10-19T02:29:27.148Z,19.30
2022-10-19T02:31:37.531Z,21.60
2022-10-19T02:33:47.745Z,21.30
2022-10-19T02:35:58.217Z,24.80
2022-10-19T02:38:12.591Z,24.60
2022-10-19T02:40:22.855Z,20.00
2022-10-19T02:42:40.854Z,21.70
2022-10-19T02:44:54.745Z,40.90
2022-10-19T02:47:08.757Z,30.20
2022-10-19T02:49:19.044Z,32.40
2022-10-19T02:51:38.242Z,44.20
2022-10-19T02:53:48.115Z,41.70
2022-10-19T02:55:58.115Z,42.20
2022-10-19T02:58:08.315Z,63.20
2022-10-19T03:00:18.881Z,53.70
2022-10-19T03:02:29.242Z,73.30
2022-10-19T03:04:39.719Z,61.00
2022-10-19T03:06:49.802Z,57.40
2022-10-19T03:08:59.764Z,61.40
2022-10-19T03:11:10.109Z,48.60
2022-10-19T03:13:20.297Z,49.80
2022-10-19T03:15:30.703Z,61.60
2022-10-19T03:17:40.651Z,80.10
2022-10-19T03:19:50.860Z,76.70
2022-10-19T03:22:01.408Z,86.20
2022-10-19T03:24:11.912Z,77.10
2022-10-19T03:26:22.082Z,62.50
2022-10-19T03:28:32.409Z,52.80
2022-10-19T03:30:42.636Z,46.20
2022-10-19T03:32:52.819Z,35.30
2022-10-19T03:35:02.735Z,40.80
2022-10-19T03:37:13.942Z,35.60
2022-10-19T03:39:24.226Z,29.40
2022-10-19T03:41:35.686Z,30.80
2022-10-19T03:43:45.691Z,31.40
2022-10-19T03:45:55.794Z,27.10
2022-10-19T03:48:06.132Z,33.10
2022-10-19T03:50:17.512Z,24.70
2022-10-19T03:52:27.663Z,190.20
2022-10-19T03:54:37.685Z,258.10
2022-10-19T03:56:47.986Z,194.30
2022-10-19T03:58:59.799Z,178.80
2022-10-19T04:01:14.224Z,182.00
2022-10-19T04:03:24.371Z,199.90
2022-10-19T04:05:34.584Z,175.10
2022-10-19T04:07:47.402Z,156.10
2022-10-19T04:09:57.710Z,130.10
2022-10-19T04:12:08.221Z,106.10
2022-10-19T04:14:31.659Z,85.00
2022-10-19T04:16:42.665Z,52.40
2022-10-19T04:18:52.914Z,37.90
2022-10-19T04:21:04.486Z,28.50
2022-10-19T04:23:14.344Z,29.90
2022-10-19T04:25:24.971Z,26.00
2022-10-19T04:27:35.436Z,30.00
2022-10-19T04:29:45.500Z,34.90
2022-10-19T04:31:56.164Z,27.70
2022-10-19T04:34:06.520Z,28.20
2022-10-19T04:36:16.873Z,29.60
2022-10-19T04:38:26.842Z,27.70
2022-10-19T04:40:39.231Z,20.70
2022-10-19T04:44:57.018Z,24.90
2022-10-19T04:47:07.029Z,23.80
2022-10-19T04:49:19.484Z,24.50
2022-10-19T04:51:31.413Z,23.10
2022-10-19T04:53:42.635Z,23.10
2022-10-19T04:55:52.540Z,21.90
2022-10-19T04:58:02.563Z,22.50
2022-10-19T05:00:15.242Z,26.50
2022-10-19T05:02:25.357Z,38.60
2022-10-19T05:04:35.384Z,43.50
2022-10-19T05:06:45.473Z,44.60
2022-10-19T05:08:55.754Z,55.70
2022-10-19T05:11:10.461Z,50.00
2022-10-19T05:13:20.543Z,53.60
2022-10-19T05:15:30.490Z,50.80
2022-10-19T05:17:40.597Z,61.90
2022-10-19T05:19:50.936Z,51.40
2022-10-19T05:22:01.066Z,52.30
2022-10-19T05:24:13.783Z,69.30
2022-10-19T05:26:24.644Z,76.10
2022-10-19T05:28:35.437Z,76.40
2022-10-19T05:30:48.848Z,51.40
2022-10-19T05:32:59.170Z,36.90
2022-10-19T05:35:10.815Z,32.90
2022-10-19T05:37:22.180Z,29.20
2022-10-19T05:39:32.283Z,22.50
2022-10-19T05:41:43.269Z,23.20
2022-10-19T05:43:57.667Z,18.50
2022-10-19T05:46:10.419Z,19.70
2022-10-19T05:48:20.316Z,19.50
2022-10-19T05:50:30.517Z,18.40
2022-10-19T05:52:40.568Z,19.00
2022-10-19T05:54:50.428Z,21.60
2022-10-19T05:57:00.473Z,17.20
2022-10-19T05:59:13.017Z,19.60
2022-10-19T06:03:31.454Z,16.00
2022-10-19T06:05:42.117Z,16.20
2022-10-19T06:07:52.217Z,23.10
2022-10-19T06:10:02.103Z,15.90
2022-10-19T06:12:12.223Z,20.10
2022-10-19T06:14:22.202Z,15.50
2022-10-19T06:16:32.971Z,21.70
2022-10-19T06:18:44.044Z,18.90
2022-10-19T06:20:54.178Z,17.40
2022-10-19T06:23:04.471Z,18.80
2022-10-19T06:25:18.006Z,15.70
2022-10-19T06:27:31.013Z,20.80
2022-10-19T06:29:41.346Z,23.90
2022-10-19T06:31:52.725Z,19.80
2022-10-19T06:34:03.159Z,14.70
2022-10-19T06:36:14.797Z,25.70
2022-10-19T06:38:24.978Z,18.40
2022-10-19T06:40:35.027Z,16.70
2022-10-19T06:42:45.224Z,17.20
2022-10-19T06:44:55.195Z,16.00
2022-10-19T06:47:05.408Z,17.80
2022-10-19T06:49:17.406Z,15.40
2022-10-19T06:51:28.494Z,20.90
2022-10-19T06:53:38.775Z,29.70
2022-10-19T06:55:48.854Z,21.20
2022-10-19T06:58:02.139Z,21.70
2022-10-19T07:00:14.209Z,17.10
2022-10-19T07:02:24.073Z,21.10
2022-10-19T07:04:34.211Z,19.60
2022-10-19T07:06:44.545Z,23.00
2022-10-19T07:08:54.816Z,20.00
2022-10-19T07:11:06.186Z,21.50
2022-10-19T07:13:16.217Z,22.00
2022-10-19T07:15:26.432Z,26.20
2022-10-19T07:17:36.638Z,27.60
2022-10-19T07:19:46.707Z,21.20
2022-10-19T07:21:56.782Z,18.50
2022-10-19T07:24:07.178Z,20.40
2022-10-19T07:26:19.081Z,22.00
2022-10-19T07:28:29.590Z,24.60
2022-10-19T07:30:42.094Z,26.10
2022-10-19T07:32:52.039Z,28.10
2022-10-19T07:35:02.109Z,20.00
2022-10-19T07:37:12.117Z,23.00
2022-10-19T07:39:22.817Z,21.30
2022-10-19T07:41:33.201Z,21.90
2022-10-19T07:43:44.650Z,23.00
2022-10-19T07:45:59.238Z,20.90
2022-10-19T07:48:09.702Z,25.10
2022-10-19T07:50:19.723Z,20.90
2022-10-19T07:52:31.830Z,21.40
2022-10-19T07:54:44.357Z,22.90
2022-10-19T07:56:54.383Z,18.10
2022-10-19T07:59:05.853Z,21.00
2022-10-19T08:01:17.376Z,20.50
2022-10-19T08:06:01.409Z,17.80
2022-10-19T08:08:11.434Z,22.50
2022-10-19T08:10:21.801Z,22.30
2022-10-19T08:12:32.230Z,24.20
2022-10-19T08:14:42.616Z,22.70
2022-10-19T08:16:52.567Z,15.30
2022-10-19T08:19:04.996Z,19.30
2022-10-19T08:21:15.015Z,16.50
2022-10-19T08:23:25.272Z,17.90
2022-10-19T08:25:35.312Z,14.90
2022-10-19T08:27:45.369Z,18.20
2022-10-19T08:29:55.556Z,17.00
2022-10-19T08:32:05.618Z,17.20
2022-10-19T08:34:16.620Z,22.50
2022-10-19T08:36:28.020Z,19.60
2022-10-19T08:38:39.085Z,15.60
2022-10-19T08:40:49.459Z,19.20
2022-10-19T08:43:04.733Z,19.30
2022-10-19T08:45:33.449Z,19.50
2022-10-19T08:47:58.227Z,19.00
2022-10-19T08:50:21.361Z,18.60
2022-10-19T08:52:35.167Z,18.50
2022-10-19T08:54:51.996Z,18.40
2022-10-19T08:57:10.665Z,19.40
2022-10-19T08:59:31.952Z,17.90
2022-10-19T09:01:48.917Z,15.00
2022-10-19T09:04:03.372Z,19.60
2022-10-19T09:06:23.080Z,18.60
2022-10-19T09:08:33.681Z,17.40
2022-10-19T09:10:46.281Z,22.60
2022-10-19T09:13:01.123Z,22.60
2022-10-19T09:15:17.223Z,18.20
2022-10-19T09:17:27.264Z,21.30
2022-10-19T09:19:37.324Z,16.50
2022-10-19T09:21:52.126Z,15.40
2022-10-19T09:24:08.796Z,17.60
2022-10-19T09:26:20.689Z,16.90
2022-10-19T09:28:44.680Z,21.20
2022-10-19T09:30:56.552Z,17.50
2022-10-19T09:33:09.186Z,17.50
2022-10-19T09:35:30.988Z,15.50
2022-10-19T09:37:46.904Z,16.40
2022-10-19T09:39:57.802Z,17.60
2022-10-19T09:42:15.420Z,16.80
2022-10-19T09:44:26.250Z,15.40
2022-10-19T09:48:56.196Z,18.00
2022-10-19T09:51:14.969Z,16.10
2022-10-19T09:53:27.258Z,15.50
2022-10-19T09:55:41.977Z,17.90
2022-10-19T09:57:59.736Z,20.00
2022-10-19T10:00:19.038Z,16.00
2022-10-19T10:02:34.691Z,17.70
2022-10-19T10:04:47.319Z,17.60
2022-10-19T10:06:59.004Z,17.20
2022-10-19T10:09:09.421Z,14.70
2022-10-19T10:11:26.436Z,16.20
2022-10-19T10:13:41.787Z,16.80
2022-10-19T10:15:59.250Z,22.40
2022-10-19T10:18:12.447Z,19.20
2022-10-19T10:20:30.788Z,17.90
2022-10-19T10:22:41.968Z,16.40
2022-10-19T10:24:58.989Z,17.00
2022-10-19T10:27:27.008Z,18.20
2022-10-19T10:29:38.078Z,13.30
2022-10-19T10:31:49.513Z,10.50
2022-10-19T10:34:12.316Z,21.00
2022-10-19T10:36:34.746Z,14.90
2022-10-19T10:38:49.240Z,17.50
2022-10-19T10:41:02.939Z,18.00
2022-10-19T10:43:17.795Z,17.50
2022-10-19T10:45:33.135Z,18.50
2022-10-19T10:47:48.769Z,17.60
2022-10-19T10:50:03.372Z,19.10
2022-10-19T10:52:16.511Z,16.70
2022-10-19T10:54:27.661Z,14.30
2022-10-19T10:56:41.091Z,19.00
2022-10-19T10:58:53.150Z,15.60
2022-10-19T11:01:07.893Z,17.70
2022-10-19T11:03:24.765Z,16.80
2022-10-19T11:05:38.541Z,19.80
2022-10-19T11:07:51.898Z,22.30
2022-10-19T11:10:07.282Z,17.00
2022-10-19T11:12:22.203Z,18.00
2022-10-19T11:14:39.112Z,20.00
2022-10-19T11:16:52.365Z,17.20
2022-10-19T11:19:10.515Z,18.60
2022-10-19T11:21:27.637Z,16.40
2022-10-19T11:23:54.178Z,19.20
2022-10-19T11:26:12.909Z,18.40
2022-10-19T11:28:35.773Z,17.40
2022-10-19T11:30:56.992Z,15.20
2022-10-19T11:33:17.082Z,14.30
2022-10-19T11:35:37.860Z,26.30
2022-10-19T11:38:19.114Z,16.40
2022-10-19T11:40:40.255Z,16.30
2022-10-19T11:42:59.248Z,16.40
2022-10-19T11:45:22.199Z,15.90
2022-10-19T11:47:51.993Z,18.20
2022-10-19T11:50:12.936Z,15.20
2022-10-19T11:52:33.723Z,18.50
2022-10-19T11:54:55.854Z,14.60
2022-10-19T11:57:12.114Z,14.60
2022-10-19T11:59:32.232Z,16.00
2022-10-19T12:01:56.651Z,15.90
2022-10-19T12:04:30.364Z,19.00
2022-10-19T12:06:47.879Z,16.90
2022-10-19T12:09:16.451Z,18.20
2022-10-19T12:11:36.168Z,35.50
2022-10-19T12:13:50.491Z,81.40
2022-10-19T12:16:01.663Z,43.30
2022-10-19T12:18:18.365Z,74.80
2022-10-19T12:20:34.676Z,72.50
2022-10-19T12:22:45.026Z,48.80
2022-10-19T12:24:57.063Z,29.60
2022-10-19T12:27:08.851Z,25.20
2022-10-19T12:29:21.884Z,24.50
2022-10-19T12:31:32.814Z,35.60
2022-10-19T12:33:51.221Z,36.00
2022-10-19T12:36:12.497Z,31.10
2022-10-19T12:38:27.426Z,36.20
2022-10-19T12:40:44.724Z,32.40
2022-10-19T12:43:01.704Z,23.30
2022-10-19T12:45:28.184Z,20.70
2022-10-19T12:47:38.365Z,22.10
2022-10-19T12:49:53.577Z,21.70
2022-10-19T12:52:04.273Z,20.80
2022-10-19T12:54:14.995Z,33.10
2022-10-19T12:56:27.515Z,28.40
2022-10-19T13:01:02.215Z,25.70
2022-10-19T13:03:26.366Z,24.40
2022-10-19T13:05:43.635Z,21.00
2022-10-19T13:07:54.295Z,20.40
2022-10-19T13:10:10.169Z,14.30
2022-10-19T13:12:47.331Z,17.00
2022-10-19T13:14:59.604Z,15.50
2022-10-19T13:17:10.646Z,12.60
2022-10-19T13:19:27.180Z,13.30
2022-10-19T13:22:15.342Z,19.30
2022-10-19T13:24:37.860Z,19.20
2022-10-19T13:26:48.039Z,15.70
2022-10-19T13:28:58.877Z,17.60
2022-10-19T13:31:27.958Z,21.30
2022-10-19T13:33:58.013Z,14.90
2022-10-19T13:36:17.936Z,16.30
2022-10-19T13:38:30.458Z,18.40
2022-10-19T13:40:42.881Z,18.60
2022-10-19T13:43:21.286Z,17.10
2022-10-19T13:45:31.945Z,17.00
2022-10-19T13:47:48.014Z,12.80
2022-10-19T13:50:44.772Z,14.00
2022-10-19T13:53:37.346Z,17.30
2022-10-19T13:56:16.906Z,17.50
2022-10-19T13:59:00.806Z,16.60
2022-10-19T14:01:23.992Z,16.90
2022-10-19T14:03:47.932Z,13.90
2022-10-19T14:06:15.665Z,19.40
2022-10-19T14:08:43.128Z,16.70
2022-10-19T14:11:02.214Z,13.90
2022-10-19T14:13:22.687Z,19.50
2022-10-19T14:15:35.215Z,18.40
2022-10-19T14:17:46.762Z,30.60
2022-10-19T14:19:58.627Z,25.50
2022-10-19T14:22:23.447Z,27.60
2022-10-19T14:24:35.906Z,22.80
2022-10-19T14:28:58.927Z,19.30
2022-10-19T14:31:11.850Z,22.30
2022-10-19T14:33:21.782Z,20.00
2022-10-19T14:35:36.099Z,18.20
2022-10-19T14:37:47.675Z,17.00
2022-10-19T14:40:09.893Z,17.50
2022-10-19T14:42:20.066Z,16.40
2022-10-19T14:44:43.563Z,17.40
2022-10-19T14:46:53.710Z,16.60
2022-10-19T14:49:06.927Z,19.30
2022-10-19T14:51:31.285Z,18.00
2022-10-19T14:53:46.202Z,15.60
2022-10-19T14:56:00.168Z,15.70
2022-10-19T14:58:15.448Z,18.90
2022-10-19T15:02:40.689Z,16.10
2022-10-19T15:04:52.224Z,16.30
2022-10-19T15:07:05.170Z,41.70
2022-10-19T15:09:36.952Z,56.20
2022-10-19T15:11:55.355Z,46.70
2022-10-19T15:14:11.784Z,41.50
2022-10-19T15:16:45.632Z,40.00
2022-10-19T15:18:55.721Z,34.70
2022-10-19T15:21:13.166Z,33.10
2022-10-19T15:23:39.536Z,33.30
2022-10-19T15:25:49.765Z,34.10
2022-10-19T15:28:00.005Z,39.20
2022-10-19T15:30:25.907Z,37.70
2022-10-19T15:32:39.733Z,31.20
2022-10-19T15:34:50.341Z,32.00
2022-10-19T15:37:02.757Z,31.90
2022-10-19T15:39:32.862Z,32.20
2022-10-19T15:41:48.092Z,29.30
2022-10-19T15:43:59.450Z,24.10
2022-10-19T15:46:22.696Z,27.80
2022-10-19T15:48:51.053Z,19.90
2022-10-19T15:51:03.900Z,23.40
2022-10-19T15:53:15.030Z,20.10
2022-10-19T15:55:25.187Z,24.30
2022-10-19T15:57:37.198Z,26.90
2022-10-19T15:59:49.259Z,17.50
2022-10-19T16:01:59.288Z,21.10
2022-10-19T16:04:09.937Z,15.90
2022-10-19T16:06:21.751Z,19.80
2022-10-19T16:08:31.766Z,15.50
2022-10-19T16:10:42.004Z,19.60
2022-10-19T16:12:52.158Z,17.70
2022-10-19T16:15:02.412Z,26.00
2022-10-19T16:17:14.804Z,20.90
2022-10-19T16:19:24.791Z,23.10
2022-10-19T16:21:37.774Z,20.70
2022-10-19T16:23:47.866Z,21.40
2022-10-19T16:25:58.330Z,20.40
2022-10-19T16:28:08.631Z,40.30
2022-10-19T16:30:19.292Z,44.40
2022-10-19T16:32:29.431Z,51.50
2022-10-19T16:34:40.123Z,242.20
2022-10-19T16:36:50.526Z,223.60
2022-10-19T16:39:01.824Z,243.40
2022-10-19T16:41:12.764Z,203.90
2022-10-19T16:43:22.947Z,316.20
2022-10-19T16:45:33.533Z,320.80
2022-10-19T16:47:43.784Z,280.80
2022-10-19T18:29:18.324Z,69.70
2022-10-19T18:31:30.509Z,81.00
2022-10-19T18:33:51.020Z,85.20
2022-10-19T18:36:06.627Z,73.20
2022-10-19T18:38:16.904Z,68.60
2022-10-19T18:40:26.997Z,73.10
2022-10-19T18:42:37.854Z,89.10
2022-10-19T18:44:48.886Z,105.60
2022-10-19T18:46:59.358Z,40.40
2022-10-19T18:49:10.711Z,61.60
2022-10-19T18:51:23.189Z,46.80
2022-10-19T18:55:42.621Z,30.50
2022-10-19T18:57:53.057Z,36.80
2022-10-19T19:00:03.158Z,34.40
2022-10-19T19:02:22.474Z,35.90
2022-10-19T19:04:40.266Z,36.60
2022-10-19T19:06:50.541Z,43.00
2022-10-19T19:09:01.412Z,43.50
2022-10-19T19:11:18.955Z,38.60
2022-10-19T19:13:29.301Z,49.40
2022-10-19T19:15:39.646Z,29.70
2022-10-19T19:17:55.901Z,33.40
2022-10-19T19:20:06.666Z,47.40
2022-10-19T19:22:18.204Z,52.20
2022-10-19T19:24:32.042Z,58.40
2022-10-19T19:26:44.887Z,77.30
2022-10-19T19:28:55.181Z,51.10
2022-10-19T19:31:07.572Z,59.60
2022-10-19T19:35:25.958Z,63.00
2022-10-19T19:37:36.942Z,86.50
2022-10-19T19:39:47.512Z,138.10
2022-10-19T19:41:57.486Z,75.10
2022-10-19T19:44:07.861Z,76.70
2022-10-19T19:46:20.373Z,84.60
2022-10-19T19:48:30.869Z,106.20
2022-10-19T19:50:41.714Z,112.90
2022-10-19T19:52:52.267Z,105.10
2022-10-19T19:57:12.681Z,112.50
2022-10-19T19:59:23.132Z,112.10
2022-10-19T20:01:34.171Z,122.60
2022-10-19T20:03:44.560Z,122.00
2022-10-19T20:05:54.651Z,127.40
2022-10-19T20:08:05.197Z,122.60
2022-10-19T20:10:16.602Z,135.80
2022-10-19T20:12:26.942Z,129.20
2022-10-19T20:14:37.013Z,108.10
2022-10-19T20:16:47.241Z,109.70
2022-10-19T20:19:02.151Z,122.00
2022-10-19T20:21:12.637Z,108.10
2022-10-19T20:23:23.014Z,117.00
2022-10-19T20:25:33.031Z,117.80
2022-10-19T20:27:43.463Z,126.10
2022-10-19T20:29:59.122Z,115.60
2022-10-19T20:32:09.685Z,122.00
2022-10-19T20:34:23.111Z,120.60
2022-10-19T20:36:34.273Z,127.70
2022-10-19T20:38:47.852Z,125.30
2022-10-19T20:40:58.469Z,102.60
2022-10-19T20:43:08.975Z,121.30
2022-10-19T20:45:19.862Z,116.50
2022-10-19T20:47:30.582Z,124.70
2022-10-19T20:49:41.869Z,143.10
2022-10-19T20:51:55.413Z,152.00
2022-10-19T20:54:07.489Z,165.50
2022-10-19T20:56:22.260Z,167.00
2022-10-19T20:58:32.267Z,126.40
2022-10-19T21:00:42.554Z,188.30
2022-10-19T21:02:54.213Z,158.90
2022-10-19T21:05:04.443Z,143.60
2022-10-19T21:07:14.632Z,167.10
2022-10-19T21:09:27.663Z,143.90
2022-10-19T21:11:39.703Z,163.80
2022-10-19T21:13:51.222Z,152.00
2022-10-19T21:16:09.650Z,149.90
2022-10-19T21:18:23.168Z,135.90
2022-10-19T21:20:34.425Z,102.60
2022-10-19T21:22:45.710Z,98.60
2022-10-19T21:24:56.234Z,120.70
2022-10-19T21:27:08.456Z,139.70
2022-10-19T21:29:19.643Z,117.80
2022-10-19T21:31:30.399Z,119.50
2022-10-19T21:33:40.750Z,130.30
2022-10-19T21:38:06.682Z,149.20
2022-10-19T21:40:17.512Z,151.10
2022-10-19T21:42:27.744Z,145.40
2022-10-19T21:44:37.745Z,168.80
2022-10-19T21:46:49.251Z,176.00
2022-10-19T21:48:59.742Z,174.50
2022-10-19T21:51:22.821Z,153.50
2022-10-19T21:53:33.158Z,131.90
2022-10-19T21:55:43.304Z,112.40
2022-10-19T21:57:53.314Z,117.30
2022-10-19T22:00:03.418Z,77.80
2022-10-19T22:02:22.799Z,70.10
2022-10-19T22:04:33.277Z,58.30
2022-10-19T22:06:44.026Z,69.50
2022-10-19T22:08:54.003Z,56.20
2022-10-19T22:11:09.578Z,55.10
2022-10-19T22:13:20.042Z,67.40
2022-10-19T22:15:30.031Z,77.20
2022-10-19T22:17:40.150Z,100.90
2022-10-19T22:19:51.318Z,90.10
2022-10-19T22:22:02.014Z,104.50
2022-10-19T22:24:14.296Z,83.60
2022-10-19T22:26:26.848Z,97.20
2022-10-19T22:28:36.969Z,104.10
2022-10-19T22:30:54.114Z,79.50
2022-10-19T22:33:04.033Z,76.30
2022-10-19T22:35:14.618Z,93.50
2022-10-19T22:37:24.872Z,83.30
2022-10-19T22:39:35.567Z,68.10
2022-10-19T22:41:47.318Z,71.90
2022-10-19T22:43:57.541Z,100.00
2022-10-19T22:46:07.917Z,116.90
2022-10-19T22:48:18.383Z,104.80
2022-10-19T22:50:29.149Z,100.90
2022-10-19T22:52:39.199Z,115.80
2022-10-19T22:54:51.048Z,100.40
2022-10-19T22:57:01.230Z,141.80
2022-10-19T22:59:11.752Z,125.30
2022-10-19T23:01:21.927Z,106.00
2022-10-19T23:03:32.289Z,88.50
2022-10-19T23:05:42.374Z,101.00
2022-10-19T23:07:52.579Z,93.50
2022-10-19T23:10:02.559Z,94.70
2022-10-19T23:12:13.529Z,89.90
2022-10-19T23:14:23.524Z,91.40
2022-10-19T23:16:33.697Z,83.40
2022-10-19T23:18:44.556Z,80.70
2022-10-19T23:21:02.287Z,74.10
2022-10-19T23:23:12.400Z,87.00
2022-10-19T23:25:22.558Z,90.00
2022-10-19T23:27:32.894Z,83.50
2022-10-19T23:29:43.240Z,67.10
2022-10-19T23:31:53.417Z,80.50
2022-10-19T23:34:03.509Z,73.90
2022-10-19T23:36:16.171Z,42.60
2022-10-19T23:38:27.159Z,40.80
2022-10-19T23:40:37.233Z,41.90
2022-10-19T23:42:47.384Z,36.30
2022-10-19T23:44:57.834Z,36.20
2022-10-19T23:47:07.857Z,39.20
2022-10-19T23:49:17.994Z,37.40
2022-10-19T23:51:28.161Z,40.20
2022-10-19T23:53:41.053Z,69.40
2022-10-19T23:55:51.926Z,79.80
2022-10-19T23:58:02.101Z,98.50
